Time;durP1;ratioP1;P1;durP2;ratioP2;P2;SDS_P1;SDS_P2;PMS_P1;PMS_P2;Temp;Humidity;BMP_temperature;BMP_pressure;BME280_temperature;BME280_humidity;BME280_pressure;Samples;Min_cycle;Max_cycle;Signal;HPM_P1;HPM_P2
2023/09/18 00:00:49;;;;;;;9.10;7.95;;;;;;;25.48;65.29;101204.44;4993651;28;20057;-56
2023/09/18 00:03:24;;;;;;;9.80;8.75;;;;;;;25.47;65.36;101213.59;5012188;28;20046;-56
2023/09/18 00:05:52;;;;;;;9.68;8.60;;;;;;;25.47;65.36;101230.69;5009805;28;20504;-57
2023/09/18 00:08:20;;;;;;;8.27;7.45;;;;;;;25.48;65.19;101231.53;5009824;28;20042;-56
2023/09/18 00:10:51;;;;;;;7.68;6.97;;;;;;;25.49;65.25;101235.97;5011872;28;20053;-56
2023/09/18 00:13:19;;;;;;;9.15;8.18;;;;;;;25.47;65.16;101222.56;5012313;28;20053;-56
2023/09/18 00:15:47;;;;;;;9.02;7.78;;;;;;;25.48;65.18;101218.88;5008819;28;20049;-56
2023/09/18 00:18:16;;;;;;;9.10;8.20;;;;;;;25.48;65.23;101218.00;5010734;28;20046;-56
2023/09/18 00:20:44;;;;;;;9.23;8.35;;;;;;;25.48;65.08;101221.56;5011935;28;20050;-56
2023/09/18 00:23:11;;;;;;;8.75;7.85;;;;;;;25.48;65.05;101226.13;5011803;28;20392;-56
2023/09/18 00:25:42;;;;;;;8.27;7.25;;;;;;;25.48;65.06;101218.88;5008080;28;20392;-56
2023/09/18 00:28:10;;;;;;;9.75;8.75;;;;;;;25.49;64.87;101209.72;5011473;28;20064;-57
2023/09/18 00:30:42;;;;;;;9.30;8.35;;;;;;;25.50;65.00;101207.84;5010327;28;20050;-56
2023/09/18 00:33:10;;;;;;;9.77;7.95;;;;;;;25.49;65.12;101204.28;5010990;28;20041;-56
2023/09/18 00:35:38;;;;;;;9.20;8.10;;;;;;;25.48;65.05;101202.59;5006672;28;20052;-57
2023/09/18 00:38:07;;;;;;;9.48;8.57;;;;;;;25.50;64.96;101202.44;4985484;28;20382;-58
2023/09/18 00:40:36;;;;;;;8.82;8.00;;;;;;;25.49;64.86;101196.16;5012881;28;20072;-56
2023/09/18 00:43:03;;;;;;;9.35;8.05;;;;;;;25.49;64.95;101189.91;5025472;28;20061;-56
2023/09/18 00:45:30;;;;;;;9.43;8.43;;;;;;;25.49;65.02;101188.03;5010653;28;20042;-56
2023/09/18 00:47:59;;;;;;;8.75;7.78;;;;;;;25.50;65.02;101194.28;4995854;28;20041;-56
2023/09/18 00:50:26;;;;;;;9.15;8.25;;;;;;;25.50;64.93;101195.13;5011204;28;20050;-61
2023/09/18 00:52:54;;;;;;;9.93;8.52;;;;;;;25.49;64.91;101162.78;5011194;28;20050;-61
2023/09/18 00:55:22;;;;;;;9.25;7.70;;;;;;;25.50;65.00;101150.91;5009398;28;20051;-61
2023/09/18 00:57:50;;;;;;;9.23;7.78;;;;;;;25.50;64.89;101161.75;5012292;28;20056;-61
2023/09/18 01:00:18;;;;;;;8.25;7.40;;;;;;;25.49;64.92;101160.91;5011174;28;20053;-61
2023/09/18 01:02:45;;;;;;;8.85;7.72;;;;;;;25.49;65.02;101160.91;5010179;28;20054;-61
2023/09/18 01:05:16;;;;;;;8.20;7.35;;;;;;;25.50;64.90;101168.03;5009213;28;20047;-61
2023/09/18 01:07:44;;;;;;;8.88;7.97;;;;;;;25.51;64.88;101160.75;5012219;28;20046;-61
2023/09/18 01:10:16;;;;;;;9.07;8.27;;;;;;;25.51;64.85;101169.72;5012681;28;20056;-57
2023/09/18 01:12:55;;;;;;;8.23;7.38;;;;;;;25.51;64.87;101152.59;5007551;28;20061;-56
2023/09/18 01:15:44;;;;;;;9.25;8.00;;;;;;;25.50;64.80;101146.34;5007901;28;20046;-56
2023/09/18 01:18:11;;;;;;;10.40;9.40;;;;;;;25.50;64.84;101134.66;5011579;28;20487;-61
2023/09/18 01:20:39;;;;;;;10.23;9.23;;;;;;;25.50;64.76;101124.66;5009260;28;20050;-61
2023/09/18 01:23:06;;;;;;;8.65;7.80;;;;;;;25.50;64.79;101142.78;5010438;28;20057;-61
2023/09/18 01:25:34;;;;;;;9.55;8.23;;;;;;;25.50;64.82;101157.19;5012321;28;20042;-61
2023/09/18 01:28:02;;;;;;;9.32;8.32;;;;;;;25.50;64.87;101140.94;5012091;28;20057;-60
2023/09/18 01:30:30;;;;;;;9.45;8.27;;;;;;;25.49;64.84;101144.66;5008912;28;20416;-57
2023/09/18 01:32:59;;;;;;;8.90;8.05;;;;;;;25.51;65.04;101158.03;5010398;28;20053;-56
2023/09/18 01:35:30;;;;;;;8.93;8.05;;;;;;;25.50;64.74;101165.31;5011739;28;20049;-56
2023/09/18 01:38:00;;;;;;;9.38;8.38;;;;;;;25.50;64.82;101165.31;4987828;28;20512;-57
2023/09/18 01:40:28;;;;;;;9.02;8.13;;;;;;;25.50;64.75;101157.19;5002455;28;20061;-61
2023/09/18 01:42:56;;;;;;;8.65;7.53;;;;;;;25.50;64.82;101146.34;5011669;28;20050;-61
2023/09/18 01:45:23;;;;;;;10.43;8.48;;;;;;;25.51;64.75;101145.31;5024907;28;20050;-61
2023/09/18 01:47:51;;;;;;;9.65;8.73;;;;;;;25.51;64.78;101139.06;5009420;28;20054;-61
2023/09/18 01:50:18;;;;;;;9.70;8.18;;;;;;;25.51;64.75;101147.19;5006940;28;20077;-61
2023/09/18 01:52:47;;;;;;;8.60;7.75;;;;;;;25.51;64.71;101142.63;5011398;28;20393;-61
2023/09/18 01:55:14;;;;;;;9.57;8.57;;;;;;;25.51;64.68;101137.19;5025048;28;20046;-61
2023/09/18 01:57:42;;;;;;;9.98;8.15;;;;;;;25.51;64.65;101131.78;5010664;28;20057;-61
2023/09/18 02:00:11;;;;;;;9.35;8.35;;;;;;;25.50;64.78;101135.50;5008304;28;20066;-57
2023/09/18 02:02:40;;;;;;;9.45;8.57;;;;;;;25.51;64.66;101129.06;5011587;28;20647;-56
2023/09/18 02:05:27;;;;;;;9.45;8.52;;;;;;;25.51;64.52;101125.50;5009835;28;20054;-56
2023/09/18 02:07:56;;;;;;;10.05;9.05;;;;;;;25.50;64.58;101138.22;5020637;28;20054;-57
2023/09/18 02:10:23;;;;;;;9.18;8.27;;;;;;;25.50;64.52;101142.78;5011255;28;20046;-61
2023/09/18 02:12:51;;;;;;;10.00;8.70;;;;;;;25.51;64.58;101158.03;5010961;28;20396;-61
2023/09/18 02:15:18;;;;;;;9.07;8.27;;;;;;;25.51;64.48;101152.59;5004251;28;20046;-61
2023/09/18 02:17:46;;;;;;;9.10;8.20;;;;;;;25.51;64.53;101136.34;5011056;28;20050;-61
2023/09/18 02:20:13;;;;;;;10.55;9.27;;;;;;;25.50;64.40;101135.50;5008587;28;20049;-61
2023/09/18 02:22:41;;;;;;;9.25;8.07;;;;;;;25.51;64.38;101128.22;5007953;28;20093;-61
2023/09/18 02:25:09;;;;;;;8.82;7.93;;;;;;;25.51;64.35;101137.19;5009738;28;20042;-61
2023/09/18 02:27:36;;;;;;;9.88;8.98;;;;;;;25.51;64.34;101137.19;4992655;28;20066;-61
2023/09/18 02:30:04;;;;;;;9.05;8.15;;;;;;;25.51;64.43;101126.34;5006097;28;20054;-56
2023/09/18 02:32:32;;;;;;;8.77;7.78;;;;;;;25.52;64.35;101132.63;5009637;28;20054;-56
2023/09/18 02:35:00;;;;;;;9.05;8.15;;;;;;;25.51;64.44;101128.22;5024518;28;20500;-56
2023/09/18 02:37:29;;;;;;;8.90;8.10;;;;;;;25.51;64.46;101120.09;5001769;28;20051;-55
2023/09/18 02:39:56;;;;;;;9.18;8.27;;;;;;;25.51;64.45;101104.66;4986170;28;20488;-61
2023/09/18 02:42:24;;;;;;;9.70;8.70;;;;;;;25.52;64.44;101094.66;5010365;28;20057;-61
2023/09/18 02:44:51;;;;;;;9.23;8.40;;;;;;;25.52;64.52;101067.56;5009384;28;20057;-61
2023/09/18 02:47:19;;;;;;;10.63;7.85;;;;;;;25.51;64.38;101036.88;5005845;28;20053;-61
2023/09/18 02:49:47;;;;;;;9.43;8.20;;;;;;;25.52;64.47;101018.75;5009035;28;20048;-57
2023/09/18 02:52:14;;;;;;;9.75;8.75;;;;;;;25.52;64.53;101007.91;5023741;28;20061;-58
2023/09/18 02:54:42;;;;;;;9.65;8.07;;;;;;;25.52;64.66;101013.34;5009809;28;20042;-58
2023/09/18 02:57:09;;;;;;;9.07;8.18;;;;;;;25.51;64.54;101023.34;5004819;28;20405;-58
2023/09/18 02:59:37;;;;;;;10.25;8.48;;;;;;;25.50;64.44;101028.94;5002188;28;20045;-58
2023/09/18 03:02:05;;;;;;;9.00;8.10;;;;;;;25.49;64.54;101052.50;5008557;28;20125;-58
2023/09/18 03:04:33;;;;;;;9.18;7.72;;;;;;;25.49;64.29;101051.66;5009200;28;20056;-58
2023/09/18 03:07:01;;;;;;;10.07;9.07;;;;;;;25.48;64.22;101045.38;5004036;28;20069;-58
2023/09/18 03:09:29;;;;;;;8.88;7.93;;;;;;;25.49;64.19;101051.66;5007749;28;20054;-58
2023/09/18 03:11:57;;;;;;;9.27;8.40;;;;;;;25.46;64.33;101052.81;5009595;28;20060;-58
2023/09/18 03:14:25;;;;;;;9.50;8.52;;;;;;;25.45;64.33;101040.28;5007199;28;20054;-58
2023/09/18 03:16:53;;;;;;;9.63;8.63;;;;;;;25.47;64.29;101042.81;4998098;28;20061;-58
2023/09/18 03:19:24;;;;;;;12.45;8.95;;;;;;;25.46;64.28;101039.25;5008374;28;20068;-58
2023/09/18 03:21:52;;;;;;;9.52;8.55;;;;;;;25.45;64.31;101029.44;5007330;28;20050;-58
2023/09/18 03:24:20;;;;;;;11.63;9.60;;;;;;;25.45;64.33;101026.72;5006348;28;20058;-58
2023/09/18 03:26:49;;;;;;;9.43;8.40;;;;;;;25.44;64.01;101016.03;5005182;28;20046;-58
2023/09/18 03:29:16;;;;;;;10.35;9.02;;;;;;;25.41;64.05;101003.69;5007195;28;20057;-58
2023/09/18 03:31:44;;;;;;;10.57;9.48;;;;;;;25.42;64.09;101012.66;5007072;28;20064;-58
2023/09/18 03:34:11;;;;;;;10.85;8.77;;;;;;;25.40;64.01;101015.53;5006189;28;20053;-58
2023/09/18 03:36:39;;;;;;;10.57;8.50;;;;;;;25.39;64.18;101014.69;5004716;28;20054;-58
2023/09/18 03:39:07;;;;;;;9.75;8.77;;;;;;;25.39;64.17;101011.97;5000516;28;20500;-58
2023/09/18 03:41:34;;;;;;;9.82;8.88;;;;;;;25.40;64.25;101012.81;4994249;28;20049;-58
2023/09/18 03:44:02;;;;;;;10.27;9.27;;;;;;;25.38;64.02;101021.13;5020873;28;20046;-58
2023/09/18 03:46:31;;;;;;;10.10;8.90;;;;;;;25.38;64.38;101037.38;5004781;28;20050;-58
2023/09/18 03:48:58;;;;;;;10.68;9.68;;;;;;;25.38;64.32;101045.50;5007069;28;20062;-60
2023/09/18 03:51:26;;;;;;;10.23;9.23;;;;;;;25.39;64.30;101049.91;5006922;28;20082;-61
2023/09/18 03:53:53;;;;;;;9.77;8.75;;;;;;;25.38;64.37;101053.66;5006286;28;20496;-62
2023/09/18 03:56:21;;;;;;;9.07;8.18;;;;;;;25.39;64.09;101046.34;5004679;28;20635;-62
2023/09/18 03:58:49;;;;;;;10.80;9.80;;;;;;;25.38;64.29;101031.97;5007155;28;20050;-58
2023/09/18 04:01:17;;;;;;;10.23;9.10;;;;;;;25.39;64.17;101032.81;5007831;28;20492;-58
2023/09/18 04:03:45;;;;;;;9.95;8.95;;;;;;;25.38;64.24;101026.53;5004985;28;20133;-58
2023/09/18 04:06:13;;;;;;;9.30;8.07;;;;;;;25.39;64.15;101027.38;5003482;28;20051;-58
2023/09/18 04:08:40;;;;;;;9.40;8.48;;;;;;;25.38;64.04;101029.25;5007820;28;20046;-60
2023/09/18 04:11:09;;;;;;;9.52;8.63;;;;;;;25.38;64.17;101036.53;5006699;28;20054;-61
2023/09/18 04:13:37;;;;;;;9.07;8.18;;;;;;;25.38;64.18;101060.94;5005692;28;20389;-62
2023/09/18 04:16:05;;;;;;;9.00;8.10;;;;;;;25.37;64.23;101070.94;4986948;28;20508;-61
2023/09/18 04:18:32;;;;;;;9.73;8.75;;;;;;;25.37;64.07;101076.34;5006772;28;20420;-60
2023/09/18 04:21:00;;;;;;;10.25;8.90;;;;;;;25.37;64.31;101075.50;5008466;28;20050;-62
2023/09/18 04:23:28;;;;;;;10.40;9.32;;;;;;;25.37;64.20;101076.34;5004734;28;20054;-61
2023/09/18 04:25:58;;;;;;;10.38;8.95;;;;;;;25.37;64.02;101080.94;5004273;28;20413;-60
2023/09/18 04:28:26;;;;;;;11.25;10.10;;;;;;;25.37;64.04;101072.78;5006858;28;20057;-58
2023/09/18 04:30:55;;;;;;;10.40;9.00;;;;;;;25.36;64.14;101079.22;5006880;28;20520;-60
2023/09/18 04:33:25;;;;;;;12.20;9.57;;;;;;;25.36;64.20;101081.91;5003282;28;20077;-61
2023/09/18 04:35:53;;;;;;;9.75;8.73;;;;;;;25.35;64.19;101077.53;5005033;28;20085;-61
2023/09/18 04:38:21;;;;;;;10.02;8.88;;;;;;;25.36;63.89;101068.38;5006817;28;20053;-58
2023/09/18 04:40:48;;;;;;;9.93;8.93;;;;;;;25.34;64.02;101057.72;4989817;28;20054;-58
2023/09/18 04:43:16;;;;;;;10.50;9.45;;;;;;;25.33;64.17;101064.16;5000924;28;20058;-58
2023/09/18 04:45:45;;;;;;;9.43;8.52;;;;;;;25.34;64.04;101071.25;5005592;28;20069;-57
2023/09/18 04:48:14;;;;;;;9.48;8.35;;;;;;;25.34;64.11;101059.56;5026068;28;20054;-60
2023/09/18 04:50:42;;;;;;;12.38;9.45;;;;;;;25.34;64.12;101054.16;5010297;28;20054;-60
2023/09/18 04:53:10;;;;;;;11.20;9.60;;;;;;;25.35;64.02;101066.69;5012292;28;20073;-62
2023/09/18 04:55:38;;;;;;;10.43;9.30;;;;;;;25.35;64.13;101064.81;5009149;28;20077;-60
2023/09/18 04:58:06;;;;;;;8.85;8.05;;;;;;;25.35;64.13;101062.09;5005744;28;20058;-58
2023/09/18 05:00:34;;;;;;;10.13;8.93;;;;;;;25.35;64.13;101063.97;5012657;28;20057;-61
2023/09/18 05:03:03;;;;;;;9.50;8.60;;;;;;;25.33;64.18;101064.16;5006261;28;20527;-61
2023/09/18 05:05:31;;;;;;;9.38;8.43;;;;;;;25.34;64.06;101073.97;5009860;28;20054;-61
2023/09/18 05:07:58;;;;;;;10.77;9.05;;;;;;;25.33;64.14;101077.69;5025351;28;20492;-61
2023/09/18 05:10:26;;;;;;;9.95;8.95;;;;;;;25.33;63.96;101093.97;5010335;28;20050;-58
2023/09/18 05:12:58;;;;;;;10.82;8.80;;;;;;;25.32;64.03;101105.81;5007535;28;20077;-58
2023/09/18 05:15:29;;;;;;;9.27;8.38;;;;;;;25.33;64.00;101106.66;4991763;28;20401;-58
2023/09/18 05:17:58;;;;;;;10.88;9.20;;;;;;;25.32;64.10;101099.53;5009570;28;20056;-58
2023/09/18 05:20:29;;;;;;;9.13;8.25;;;;;;;25.31;64.04;101085.13;5009521;28;20515;-58
2023/09/18 05:22:57;;;;;;;9.80;8.80;;;;;;;25.31;63.86;101077.00;5008380;28;20499;-58
2023/09/18 05:25:27;;;;;;;9.50;8.52;;;;;;;25.32;64.03;101085.97;5010982;28;20049;-57
2023/09/18 05:27:57;;;;;;;10.50;8.75;;;;;;;25.32;63.96;101083.25;5011259;28;20404;-58
2023/09/18 05:30:33;;;;;;;9.00;8.10;;;;;;;25.32;63.80;101077.84;5007024;28;20054;-61
2023/09/18 05:33:04;;;;;;;9.68;8.68;;;;;;;25.31;63.97;101073.44;5008570;28;20054;-61
2023/09/18 05:35:39;;;;;;;10.75;9.75;;;;;;;25.31;64.00;101087.00;5010514;28;20045;-62
2023/09/18 05:38:08;;;;;;;9.93;8.93;;;;;;;25.31;63.80;101081.56;5009114;28;20046;-60
2023/09/18 05:40:35;;;;;;;9.93;8.93;;;;;;;25.31;63.82;101089.69;5005173;28;20058;-61
2023/09/18 05:43:03;;;;;;;9.52;8.60;;;;;;;25.31;63.72;101092.41;4990795;28;20038;-62
2023/09/18 05:45:32;;;;;;;10.20;9.20;;;;;;;25.31;63.96;101095.13;5010649;28;20045;-62
2023/09/18 05:48:07;;;;;;;10.02;8.25;;;;;;;25.31;63.92;101105.97;5008160;28;20044;-59
2023/09/18 05:50:35;;;;;;;10.85;9.75;;;;;;;25.31;64.01;101111.38;5008280;28;20061;-57
2023/09/18 05:53:03;;;;;;;11.05;9.50;;;;;;;25.32;63.86;101103.09;5010357;28;20042;-58
2023/09/18 05:55:33;;;;;;;9.73;8.85;;;;;;;25.32;63.91;101104.94;5000143;28;20050;-58
2023/09/18 05:58:02;;;;;;;9.38;8.40;;;;;;;25.32;63.83;101113.06;5003243;28;20507;-58
2023/09/18 06:00:31;;;;;;;11.65;10.07;;;;;;;25.32;63.72;101115.78;5001634;28;20053;-59
2023/09/18 06:02:59;;;;;;;10.85;9.75;;;;;;;25.31;63.85;101116.81;4999153;28;20050;-59
2023/09/18 06:05:27;;;;;;;10.80;9.70;;;;;;;25.29;63.75;101116.97;5000369;28;20046;-59
2023/09/18 06:07:54;;;;;;;10.07;8.88;;;;;;;25.28;63.75;101109.88;4994533;28;20046;-59
2023/09/18 06:10:22;;;;;;;10.18;9.18;;;;;;;25.28;63.80;101109.88;5001627;28;20500;-59
2023/09/18 06:12:49;;;;;;;9.70;8.70;;;;;;;25.30;63.95;101117.81;5000286;28;20054;-59
2023/09/18 06:15:18;;;;;;;11.25;9.30;;;;;;;25.30;64.04;101101.56;4999958;28;20046;-59
2023/09/18 06:17:46;;;;;;;11.15;9.77;;;;;;;25.31;63.76;101105.97;5001926;28;20069;-59
2023/09/18 06:20:13;;;;;;;10.55;9.45;;;;;;;25.31;63.70;101092.41;5008873;28;20060;-58
2023/09/18 06:22:41;;;;;;;13.07;9.27;;;;;;;25.30;63.80;101085.31;5009301;28;20049;-58
2023/09/18 06:25:13;;;;;;;12.25;10.38;;;;;;;25.28;63.70;101074.63;5009441;28;20057;-58
2023/09/18 06:27:42;;;;;;;11.57;10.32;;;;;;;25.25;63.35;101077.66;5005704;28;20038;-58
2023/09/18 06:30:10;;;;;;;13.30;11.80;;;;;;;25.23;63.50;101068.00;4992142;28;20050;-59
2023/09/18 06:32:37;;;;;;;13.60;11.93;;;;;;;25.18;63.45;101056.81;5009408;28;20050;-59
2023/09/18 06:35:05;;;;;;;12.98;11.40;;;;;;;25.14;63.51;101062.56;5008340;28;20492;-59
2023/09/18 06:37:33;;;;;;;12.43;10.90;;;;;;;25.12;63.56;101042.94;5005172;28;20050;-59
2023/09/18 06:40:03;;;;;;;11.85;10.57;;;;;;;25.10;63.77;101033.25;5009115;28;20101;-59
2023/09/18 06:42:32;;;;;;;15.27;12.15;;;;;;;25.09;63.86;101043.25;4990333;28;20049;-59
2023/09/18 06:45:01;;;;;;;13.13;11.48;;;;;;;25.07;64.10;101042.53;4996717;28;20046;-59
2023/09/18 06:47:29;;;;;;;16.05;12.25;;;;;;;25.08;63.84;101046.94;5005297;28;20046;-59
2023/09/18 06:49:57;;;;;;;13.30;11.95;;;;;;;25.07;63.82;101053.34;5006613;28;20057;-59
2023/09/18 06:52:26;;;;;;;13.43;12.02;;;;;;;25.05;64.08;101055.41;5003100;28;20052;-59
2023/09/18 06:54:54;;;;;;;17.13;12.48;;;;;;;25.03;64.38;101067.41;5006780;28;20423;-59
2023/09/18 06:57:21;;;;;;;13.90;12.52;;;;;;;25.02;64.26;101071.13;4995596;28;20412;-59
2023/09/18 06:59:48;;;;;;;14.25;12.77;;;;;;;24.99;64.41;101075.00;5008646;28;20049;-58
2023/09/18 07:02:17;;;;;;;14.73;12.77;;;;;;;24.99;64.68;101064.16;5008571;28;20411;-58
2023/09/18 07:04:47;;;;;;;14.98;13.38;;;;;;;25.00;64.61;101073.16;5006289;28;20061;-58
2023/09/18 07:07:15;;;;;;;14.98;13.43;;;;;;;24.98;64.83;101070.59;5006388;28;20062;-58
2023/09/18 07:09:42;;;;;;;14.45;13.10;;;;;;;24.99;64.71;101066.88;5007824;28;20068;-59
2023/09/18 07:12:31;;;;;;;17.33;14.07;;;;;;;24.99;64.71;101072.28;5007057;28;20415;-59
2023/09/18 07:15:03;;;;;;;14.38;12.88;;;;;;;25.01;64.56;101073.00;5005343;28;20057;-59
2023/09/18 07:17:31;;;;;;;;;;;;;;;25.00;64.51;101075.88;5008740;28;20042;-59
2023/09/18 07:20:00;;;;;;;15.73;13.13;;;;;;;25.03;64.47;101076.38;5008230;28;19921;-59
2023/09/18 07:22:27;;;;;;;15.48;12.27;;;;;;;25.06;64.56;101083.31;5005655;28;20519;-59
2023/09/18 07:24:58;;;;;;;14.55;11.73;;;;;;;25.05;64.53;101087.91;5006545;28;20059;-59
2023/09/18 07:27:25;;;;;;;14.85;12.93;;;;;;;25.08;64.70;101086.75;5008834;28;20052;-59
2023/09/18 07:29:56;;;;;;;16.25;13.63;;;;;;;25.09;64.59;101083.88;5008484;28;20041;-58
2023/09/18 07:32:28;;;;;;;13.48;12.18;;;;;;;25.11;64.67;101089.97;5005018;28;20072;-58
2023/09/18 07:35:06;;;;;;;15.18;11.70;;;;;;;25.12;64.50;101078.16;4987822;28;20064;-58
2023/09/18 07:37:35;;;;;;;13.43;12.02;;;;;;;25.12;64.60;101082.72;5007031;28;20058;-58
2023/09/18 07:40:04;;;;;;;13.68;12.05;;;;;;;25.12;64.91;101083.56;5006127;28;20485;-58
2023/09/18 07:42:32;;;;;;;13.40;12.02;;;;;;;25.12;64.59;101072.72;5005518;28;20046;-58
2023/09/18 07:44:59;;;;;;;13.90;12.57;;;;;;;25.08;65.06;101065.06;5008622;28;20042;-58
2023/09/18 07:47:27;;;;;;;16.27;14.35;;;;;;;25.05;65.08;101054.56;5008434;28;20042;-58
2023/09/18 07:49:55;;;;;;;15.57;14.10;;;;;;;25.00;65.04;101046.91;5006221;28;20052;-58
2023/09/18 07:52:23;;;;;;;16.20;14.60;;;;;;;24.97;65.10;101049.94;5005167;28;20050;-58
2023/09/18 07:54:50;;;;;;;15.13;13.55;;;;;;;24.96;65.33;101047.41;5008433;28;20042;-58
2023/09/18 07:57:18;;;;;;;15.30;13.68;;;;;;;24.95;65.55;101043.00;5008209;28;20045;-58
2023/09/18 07:59:46;;;;;;;17.02;13.60;;;;;;;24.96;65.42;101044.72;5002170;28;20374;-58
2023/09/18 08:02:13;;;;;;;16.08;14.48;;;;;;;24.96;65.62;101053.69;5004675;28;20046;-58
2023/09/18 08:04:42;;;;;;;14.82;13.27;;;;;;;24.96;65.53;101061.81;5007912;28;20060;-58
2023/09/18 08:07:10;;;;;;;14.93;13.43;;;;;;;24.97;65.31;101049.09;5007543;28;20054;-58
2023/09/18 08:09:38;;;;;;;14.32;12.82;;;;;;;24.99;65.50;101053.31;4994918;28;20042;-59
2023/09/18 08:12:07;;;;;;;16.15;14.23;;;;;;;25.03;65.36;101045.72;5005065;28;20413;-59
2023/09/18 08:14:37;;;;;;;15.48;13.80;;;;;;;25.04;65.40;101045.56;5007728;28;20049;-59
2023/09/18 08:17:05;;;;;;;15.05;13.20;;;;;;;25.06;65.36;101057.09;5008017;28;20515;-59
2023/09/18 08:19:36;;;;;;;16.40;13.20;;;;;;;25.06;65.39;101059.78;5009631;28;20046;-58
2023/09/18 08:22:04;;;;;;;16.77;14.32;;;;;;;25.07;65.74;101058.78;5009606;28;20062;-58
2023/09/18 08:24:32;;;;;;;16.88;15.18;;;;;;;25.08;65.72;101049.66;5011392;28;20496;-58
2023/09/18 08:26:59;;;;;;;16.05;14.00;;;;;;;25.07;65.55;101037.09;5011407;28;20053;-58
2023/09/18 08:29:26;;;;;;;14.98;13.50;;;;;;;25.07;65.64;101038.97;5007956;28;20050;-59
2023/09/18 08:31:54;;;;;;;14.93;13.13;;;;;;;25.07;65.48;101030.84;5010010;28;20485;-59
2023/09/18 08:34:21;;;;;;;15.52;13.65;;;;;;;25.07;65.49;101037.09;5011189;28;20057;-59
2023/09/18 08:36:50;;;;;;;16.17;14.48;;;;;;;25.09;65.45;101045.97;5011058;28;20057;-59
2023/09/18 08:39:18;;;;;;;16.38;14.68;;;;;;;25.08;65.54;101049.66;5007544;28;20051;-59
2023/09/18 08:41:50;;;;;;;16.17;14.55;;;;;;;25.09;65.41;101045.13;5009895;28;20046;-59
2023/09/18 08:44:18;;;;;;;;;;;;;;;25.07;65.47;101047.09;5011779;28;20049;-59
2023/09/18 08:46:46;;;;;;;15.30;13.70;;;;;;;25.09;65.28;101050.53;5010899;28;19989;-59
2023/09/18 08:49:14;;;;;;;15.98;14.13;;;;;;;25.10;65.33;101046.81;5007700;28;20042;-58
2023/09/18 08:51:42;;;;;;;15.00;13.10;;;;;;;25.10;65.48;101063.06;5010907;28;20050;-58
2023/09/18 08:54:10;;;;;;;15.32;13.73;;;;;;;25.11;65.34;101059.31;5011107;28;20427;-58
2023/09/18 08:56:38;;;;;;;15.82;14.18;;;;;;;25.10;65.12;101049.50;5010386;28;20053;-58
2023/09/18 08:59:06;;;;;;;14.50;12.82;;;;;;;25.10;65.18;101047.66;5007535;28;20413;-58
2023/09/18 09:01:33;;;;;;;17.17;14.45;;;;;;;25.10;65.13;101036.81;5007876;28;20052;-58
2023/09/18 09:04:01;;;;;;;16.15;14.45;;;;;;;25.09;65.32;101037.84;5011405;28;20056;-58
2023/09/18 09:06:28;;;;;;;16.40;14.70;;;;;;;25.09;65.70;101037.84;5010180;28;20045;-58
2023/09/18 09:08:55;;;;;;;14.93;13.40;;;;;;;25.10;65.68;101033.25;5007745;28;20047;-59
2023/09/18 09:11:23;;;;;;;13.88;12.55;;;;;;;25.11;65.72;101032.25;5010605;28;20049;-59
2023/09/18 09:14:11;;;;;;;17.92;14.90;;;;;;;25.09;66.14;101029.72;5009338;28;20121;-58
2023/09/18 09:16:40;;;;;;;15.88;13.95;;;;;;;25.08;65.78;101041.53;5007200;28;20051;-58
2023/09/18 09:19:08;;;;;;;15.68;14.15;;;;;;;25.06;65.76;101045.41;5009494;28;20053;-58
2023/09/18 09:21:41;;;;;;;14.70;13.20;;;;;;;25.05;65.83;101044.56;5010600;28;20056;-58
2023/09/18 09:24:15;;;;;;;17.23;14.65;;;;;;;25.04;65.80;101029.31;5010231;28;20093;-58
2023/09/18 09:26:43;;;;;;;16.15;14.48;;;;;;;25.05;66.11;101030.16;5007759;28;20520;-57
2023/09/18 09:29:20;;;;;;;18.77;16.05;;;;;;;25.04;66.10;101023.91;5010091;28;20392;-57
2023/09/18 09:31:47;;;;;;;16.55;14.80;;;;;;;25.03;66.30;101027.59;5010094;28;20049;-57
2023/09/18 09:34:26;;;;;;;17.30;15.57;;;;;;;25.02;66.60;101023.22;5007287;28;20093;-57
2023/09/18 09:36:55;;;;;;;18.75;16.73;;;;;;;25.03;66.55;101024.91;5009559;28;20058;-58
2023/09/18 09:39:25;;;;;;;17.48;15.65;;;;;;;25.02;66.65;101017.78;5010357;28;20041;-57
2023/09/18 09:41:52;;;;;;;18.60;15.95;;;;;;;25.00;66.57;101014.41;5009838;28;20369;-58
2023/09/18 09:44:23;;;;;;;18.75;16.33;;;;;;;25.01;66.57;101029.66;5006611;28;20489;-58
2023/09/18 09:46:51;;;;;;;19.10;15.38;;;;;;;25.02;66.38;101038.63;4989476;28;20604;-58
2023/09/18 09:49:33;;;;;;;16.13;14.27;;;;;;;25.02;66.56;101023.22;5010176;28;20038;-57
2023/09/18 09:52:01;;;;;;;16.73;14.95;;;;;;;25.01;66.54;101018.81;5005266;28;20066;-58
2023/09/18 09:54:36;;;;;;;17.35;15.65;;;;;;;25.00;66.85;101022.53;5008502;28;20054;-58
2023/09/18 09:57:05;;;;;;;15.85;14.15;;;;;;;24.97;66.68;101020.16;5010314;28;20069;-58
2023/09/18 09:59:35;;;;;;;17.17;14.25;;;;;;;24.98;66.88;101015.59;5009294;28;20065;-58
2023/09/18 10:02:02;;;;;;;15.38;13.73;;;;;;;24.96;66.73;101007.63;5006409;28;20053;-58
2023/09/18 10:04:32;;;;;;;16.83;14.80;;;;;;;24.95;66.76;101002.38;4998414;28;20061;-58
2023/09/18 10:07:09;;;;;;;18.65;13.93;;;;;;;24.93;66.95;101002.53;5009506;28;20523;-59
2023/09/18 10:09:41;;;;;;;15.10;13.05;;;;;;;24.92;67.20;100990.88;5007259;28;20050;-59
2023/09/18 10:12:24;;;;;;;15.48;13.85;;;;;;;24.93;66.93;100991.72;5007965;28;20046;-58
2023/09/18 10:14:55;;;;;;;14.52;13.13;;;;;;;24.96;67.00;100982.41;5010082;28;20053;-59
2023/09/18 10:17:30;;;;;;;17.38;15.32;;;;;;;24.95;66.91;100967.16;5007384;28;20053;-59
2023/09/18 10:20:09;;;;;;;17.15;15.02;;;;;;;24.91;67.24;100950.38;5007602;28;20061;-58
2023/09/18 10:22:43;;;;;;;17.48;15.65;;;;;;;24.86;67.41;100953.59;5009577;28;20060;-58
2023/09/18 10:25:35;;;;;;;17.17;15.38;;;;;;;24.83;67.49;100943.13;5008728;28;20054;-58
2023/09/18 10:28:03;;;;;;;17.30;15.48;;;;;;;24.83;67.60;100962.06;5004007;28;20046;-58
2023/09/18 10:30:34;;;;;;;16.92;15.23;;;;;;;24.85;67.81;100972.72;4995163;28;20068;-58
2023/09/18 10:33:01;;;;;;;16.80;15.13;;;;;;;24.87;67.51;100960.72;5008619;28;20046;-59
2023/09/18 10:35:29;;;;;;;17.30;15.07;;;;;;;24.90;67.52;100964.94;5005947;28;20058;-59
2023/09/18 10:37:58;;;;;;;15.10;13.05;;;;;;;24.93;67.73;100959.22;4988021;28;20054;-58
2023/09/18 10:40:29;;;;;;;16.17;13.85;;;;;;;24.96;67.80;100958.03;5001130;28;20062;-58
2023/09/18 10:42:58;;;;;;;15.52;13.93;;;;;;;24.97;67.70;100960.56;5007903;28;20534;-58
2023/09/18 10:45:26;;;;;;;17.02;14.95;;;;;;;24.98;67.69;100945.16;5006248;28;20053;-58
2023/09/18 10:47:55;;;;;;;16.30;14.63;;;;;;;24.97;67.67;100938.91;5009284;28;20053;-58
2023/09/18 10:50:26;;;;;;;19.33;15.40;;;;;;;24.98;67.69;100934.31;5009281;28;20042;-58
2023/09/18 10:52:57;;;;;;;16.45;14.65;;;;;;;24.98;67.47;100940.59;5006464;28;20550;-58
2023/09/18 10:55:26;;;;;;;17.45;14.45;;;;;;;24.98;67.58;100939.75;5006784;28;20485;-58
2023/09/18 10:57:56;;;;;;;17.73;14.90;;;;;;;24.98;67.53;100940.59;5008522;28;20050;-58
2023/09/18 11:00:30;;;;;;;16.88;14.63;;;;;;;24.99;67.41;100936.84;5008534;28;20385;-59
2023/09/18 11:03:12;;;;;;;16.15;14.45;;;;;;;25.00;67.49;100949.41;5000808;28;20057;-59
2023/09/18 11:05:40;;;;;;;16.00;14.38;;;;;;;25.01;67.63;100937.56;4990491;28;20046;-60
2023/09/18 11:08:27;;;;;;;15.70;14.18;;;;;;;25.03;67.45;100937.38;5008611;28;20041;-59
2023/09/18 11:11:04;;;;;;;17.02;15.25;;;;;;;25.04;67.33;100931.81;5001501;28;20042;-58
2023/09/18 11:13:34;;;;;;;17.77;14.77;;;;;;;25.06;67.32;100926.22;4999323;28;20050;-58
2023/09/18 11:16:28;;;;;;;18.75;16.83;;;;;;;25.05;67.50;100922.66;5008680;28;20057;-58
2023/09/18 11:18:58;;;;;;;17.35;15.40;;;;;;;25.04;67.44;100926.41;5000484;28;20062;-59
2023/09/18 11:21:28;;;;;;;17.60;15.50;;;;;;;25.03;67.40;100932.81;5008922;28;20054;-58
2023/09/18 11:24:00;;;;;;;16.38;14.77;;;;;;;25.04;67.57;100933.69;5008323;28;20049;-59
2023/09/18 11:26:31;;;;;;;19.02;15.68;;;;;;;25.05;67.50;100925.38;5004588;28;20081;-58